createdAt,value
2022-09-10T00:01:55.703Z,97414.50
2022-09-10T00:04:22.130Z,97415.97
2022-09-10T00:06:48.670Z,97411.69
2022-09-10T00:09:15.111Z,97417.66
2022-09-10T00:11:41.975Z,97421.03
2022-09-10T00:14:10.370Z,97414.66
2022-09-10T00:16:36.867Z,97415.59
2022-09-10T00:19:03.704Z,97417.13
2022-09-10T00:21:30.200Z,97417.16
2022-09-10T00:23:57.067Z,97417.00
2022-09-10T00:26:24.709Z,97404.56
2022-09-10T00:28:52.310Z,97404.06
2022-09-10T00:31:19.500Z,97402.16
2022-09-10T00:33:46.043Z,97397.44
2022-09-10T00:36:24.146Z,97383.25
2022-09-10T00:38:53.331Z,97405.78
2022-09-10T00:41:20.786Z,97403.19
2022-09-10T00:43:48.975Z,97400.75
2022-09-10T00:46:27.205Z,97400.94
2022-09-10T00:48:56.512Z,97406.63
2022-09-10T00:51:23.885Z,97404.69
2022-09-10T00:53:51.599Z,97411.53
2022-09-10T00:56:18.197Z,97406.47
2022-09-10T00:58:46.214Z,97403.72
2022-09-10T01:01:13.482Z,97405.50
2022-09-10T01:03:41.110Z,97408.22
2022-09-10T01:06:07.755Z,97409.03
2022-09-10T01:08:34.336Z,97404.19
2022-09-10T01:11:11.274Z,97392.13
2022-09-10T01:13:43.610Z,97392.22
2022-09-10T01:16:16.672Z,97398.91
2022-09-10T01:18:46.050Z,97415.28
2022-09-10T01:21:20.078Z,97416.81
2022-09-10T01:24:05.121Z,97424.44
2022-09-10T01:26:58.929Z,97423.63
2022-09-10T01:29:25.396Z,97432.44
2022-09-10T01:31:55.543Z,97418.00
2022-09-10T01:34:27.084Z,97424.94
2022-09-10T01:36:56.242Z,97413.50
2022-09-10T01:39:24.004Z,97414.31
2022-09-10T01:41:53.053Z,97411.19
2022-09-10T01:44:43.168Z,97411.25
2022-09-10T01:47:29.066Z,97417.56
2022-09-10T01:50:03.846Z,97416.16
2022-09-10T01:52:42.176Z,97425.38
2022-09-10T01:55:20.711Z,97415.75
2022-09-10T01:58:10.773Z,97414.16
2022-09-10T02:00:47.271Z,97410.03
2022-09-10T02:03:16.341Z,97416.00
2022-09-10T02:05:48.631Z,97418.84
2022-09-10T02:08:18.161Z,97430.34
2022-09-10T02:11:02.034Z,97428.56
2022-09-10T02:13:34.150Z,97425.41
2022-09-10T02:16:34.368Z,97419.53
2022-09-10T02:19:02.347Z,97411.97
2022-09-10T02:21:30.871Z,97415.59
2022-09-10T02:24:08.123Z,97401.72
2022-09-10T02:26:38.086Z,97398.06
2022-09-10T02:29:06.787Z,97404.78
2022-09-10T02:31:33.366Z,97402.63
2022-09-10T02:33:59.975Z,97393.72
2022-09-10T02:36:28.310Z,97395.69
2022-09-10T02:38:56.837Z,97391.09
2022-09-10T02:41:25.947Z,97386.03
2022-09-10T02:43:54.137Z,97384.38
2022-09-10T02:46:21.056Z,97394.31
2022-09-10T02:48:47.585Z,97399.34
2022-09-10T02:51:14.054Z,97401.91
2022-09-10T02:53:40.557Z,97398.91
2022-09-10T02:56:08.604Z,97408.16
2022-09-10T02:58:36.182Z,97398.91
2022-09-10T03:01:12.120Z,97406.59
2022-09-10T03:03:39.179Z,97411.34
2022-09-10T03:06:05.745Z,97414.81
2022-09-10T03:08:32.227Z,97411.38
2022-09-10T03:10:59.830Z,97413.78
2022-09-10T03:13:27.656Z,97398.44
2022-09-10T03:15:56.240Z,97402.19
2022-09-10T03:18:25.553Z,97401.84
2022-09-10T03:20:52.911Z,97407.72
2022-09-10T03:23:19.669Z,97413.03
2022-09-10T03:25:49.597Z,97418.38
2022-09-10T03:28:17.211Z,97408.06
2022-09-10T03:30:43.838Z,97393.41
2022-09-10T03:33:11.876Z,97395.84
2022-09-10T03:35:40.317Z,97402.59
2022-09-10T03:38:06.902Z,97395.81
2022-09-10T03:40:34.126Z,97395.72
2022-09-10T03:43:01.175Z,97399.19
2022-09-10T03:45:28.636Z,97397.34
2022-09-10T03:47:55.842Z,97408.72
2022-09-10T03:50:22.393Z,97411.38
2022-09-10T03:52:50.541Z,97406.69
2022-09-10T03:55:17.926Z,97393.78
2022-09-10T03:57:45.675Z,97406.50
2022-09-10T04:00:14.501Z,97407.88
2022-09-10T04:02:46.469Z,97413.88
2022-09-10T04:05:13.681Z,97404.59
2022-09-10T04:07:40.127Z,97399.78
2022-09-10T04:10:07.074Z,97411.63
2022-09-10T04:12:33.545Z,97401.22
2022-09-10T04:15:01.827Z,97406.16
2022-09-10T04:17:28.330Z,97409.78
2022-09-10T04:19:54.972Z,97410.38
2022-09-10T04:22:22.452Z,97413.38
2022-09-10T04:24:49.745Z,97422.03
2022-09-10T04:27:16.901Z,97410.75
2022-09-10T04:29:44.026Z,97408.91
2022-09-10T04:32:10.468Z,97407.63
2022-09-10T04:34:36.968Z,97417.97
2022-09-10T04:37:03.430Z,97414.38
2022-09-10T04:39:31.513Z,97413.34
2022-09-10T04:41:58.633Z,97414.97
2022-09-10T04:44:26.364Z,97421.53
2022-09-10T04:46:52.992Z,97427.25
2022-09-10T04:49:19.612Z,97433.28
2022-09-10T04:51:46.854Z,97438.00
2022-09-10T04:54:14.555Z,97441.53
2022-09-10T04:56:43.168Z,97436.88
2022-09-10T04:59:10.802Z,97438.81
2022-09-10T05:01:37.758Z,97440.25
2022-09-10T05:04:05.104Z,97446.94
2022-09-10T05:06:35.141Z,97431.44
2022-09-10T05:09:03.733Z,97436.16
2022-09-10T05:11:31.401Z,97441.84
2022-09-10T05:13:58.341Z,97435.50
2022-09-10T05:16:27.990Z,97436.88
2022-09-10T05:18:54.822Z,97448.91
2022-09-10T05:21:21.413Z,97451.91
2022-09-10T05:23:48.442Z,97451.56
2022-09-10T05:26:14.923Z,97454.75
2022-09-10T05:28:42.586Z,97460.09
2022-09-10T05:31:12.905Z,97452.09
2022-09-10T05:33:40.849Z,97455.06
2022-09-10T05:36:10.735Z,97452.13
2022-09-10T05:38:40.099Z,97458.72
2022-09-10T05:41:10.734Z,97464.97
2022-09-10T05:43:41.912Z,97461.13
2022-09-10T05:46:10.461Z,97458.69
2022-09-10T05:48:41.766Z,97463.56
2022-09-10T05:51:10.332Z,97466.75
2022-09-10T05:53:38.252Z,97465.06
2022-09-10T05:56:07.306Z,97455.56
2022-09-10T05:58:35.100Z,97461.63
2022-09-10T06:01:01.723Z,97457.50
2022-09-10T06:03:28.417Z,97456.91
2022-09-10T06:05:59.458Z,97456.53
2022-09-10T06:08:30.453Z,97454.50
2022-09-10T06:11:03.054Z,97462.44
2022-09-10T06:13:35.296Z,97461.03
2022-09-10T06:16:02.308Z,97467.25
2022-09-10T06:18:28.990Z,97466.47
2022-09-10T06:21:02.839Z,97456.59
2022-09-10T06:23:31.285Z,97465.63
2022-09-10T06:26:04.009Z,97456.03
2022-09-10T06:28:32.516Z,97459.19
2022-09-10T06:30:59.651Z,97455.44
2022-09-10T06:33:26.264Z,97464.25
2022-09-10T06:35:57.037Z,97450.72
2022-09-10T06:38:24.806Z,97452.91
2022-09-10T06:40:55.409Z,97456.66
2022-09-10T06:43:23.502Z,97462.75
2022-09-10T06:49:12.681Z,97468.88
2022-09-10T06:51:42.498Z,97461.75
2022-09-10T06:54:10.062Z,97450.16
2022-09-10T06:56:37.261Z,97455.97
2022-09-10T06:59:04.301Z,97460.72
2022-09-10T07:01:38.200Z,97461.59
2022-09-10T07:04:06.425Z,97462.72
2022-09-10T07:06:34.753Z,97472.44
2022-09-10T07:09:05.593Z,97466.69
2022-09-10T07:11:41.198Z,97461.63
2022-09-10T07:14:12.966Z,97466.91
2022-09-10T07:16:44.345Z,97455.56
2022-09-10T07:19:13.249Z,97457.47
2022-09-10T07:21:43.216Z,97456.53
2022-09-10T07:24:14.705Z,97461.31
2022-09-10T07:27:11.091Z,97459.09
2022-09-10T07:29:40.389Z,97461.59
2022-09-10T07:32:13.464Z,97454.31
2022-09-10T07:34:40.372Z,97460.34
2022-09-10T07:37:07.582Z,97463.69
2022-09-10T07:39:34.376Z,97455.66
2022-09-10T07:42:02.614Z,97453.59
2022-09-10T07:44:33.298Z,97457.59
2022-09-10T07:47:03.357Z,97449.16
2022-09-10T07:49:31.563Z,97457.41
2022-09-10T07:52:00.251Z,97460.09
2022-09-10T07:54:31.912Z,97447.56
2022-09-10T07:56:59.897Z,97445.97
2022-09-10T07:59:27.089Z,97441.38
2022-09-10T08:02:01.433Z,97434.50
2022-09-10T08:04:36.458Z,97452.63
2022-09-10T08:07:05.742Z,97455.88
2022-09-10T08:09:34.226Z,97466.91
2022-09-10T08:12:02.321Z,97470.13
2022-09-10T08:14:28.780Z,97462.78
2022-09-10T08:16:55.935Z,97455.16
2022-09-10T08:19:22.752Z,97465.50
2022-09-10T08:21:51.148Z,97459.97
2022-09-10T08:24:23.541Z,97469.94
2022-09-10T08:26:50.615Z,97463.97
2022-09-10T08:29:18.109Z,97469.84
2022-09-10T08:31:44.696Z,97472.72
2022-09-10T08:34:17.745Z,97471.06
2022-09-10T08:36:50.549Z,97460.84
2022-09-10T08:39:17.072Z,97460.66
2022-09-10T08:41:52.673Z,97456.88
2022-09-10T08:44:35.572Z,97464.13
2022-09-10T08:47:19.867Z,97466.44
2022-09-10T08:50:09.033Z,97457.31
2022-09-10T08:52:41.505Z,97446.44
2022-09-10T08:55:18.266Z,97449.59
2022-09-10T08:57:48.947Z,97448.44
2022-09-10T09:00:18.929Z,97447.81
2022-09-10T09:02:57.733Z,97450.88
2022-09-10T09:05:28.244Z,97452.03
2022-09-10T09:07:58.586Z,97455.19
2022-09-10T09:10:41.805Z,97462.06
2022-09-10T09:13:16.047Z,97447.63
2022-09-10T09:15:51.632Z,97455.47
2022-09-10T09:18:45.235Z,97451.75
2022-09-10T09:21:24.136Z,97456.75
2022-09-10T09:24:14.207Z,97456.34
2022-09-10T09:26:49.225Z,97449.06
2022-09-10T09:29:20.397Z,97460.88
2022-09-10T09:31:50.124Z,97446.22
2022-09-10T09:34:23.974Z,97444.16
2022-09-10T09:36:52.742Z,97436.84
2022-09-10T09:39:27.706Z,97444.34
2022-09-10T09:41:59.178Z,97450.00
2022-09-10T09:44:35.305Z,97440.41
2022-09-10T09:47:02.003Z,97445.66
2022-09-10T09:49:29.096Z,97439.13
2022-09-10T09:51:58.646Z,97432.78
2022-09-10T09:54:57.154Z,97428.53
2022-09-10T09:57:15.490Z,97428.47
2022-09-10T09:59:41.976Z,97428.03
2022-09-10T10:02:13.266Z,97438.59
2022-09-10T10:04:42.441Z,97431.25
2022-09-10T10:07:09.072Z,97422.84
2022-09-10T10:09:41.452Z,97422.56
2022-09-10T10:12:16.146Z,97423.84
2022-09-10T10:14:42.855Z,97419.34
2022-09-10T10:17:32.621Z,97426.00
2022-09-10T10:20:10.229Z,97421.53
2022-09-10T10:22:38.064Z,97414.94
2022-09-10T10:25:06.310Z,97412.53
2022-09-10T10:27:36.644Z,97404.56
2022-09-10T10:30:07.265Z,97402.91
2022-09-10T10:32:40.471Z,97405.09
2022-09-10T10:35:10.165Z,97399.31
2022-09-10T10:38:09.019Z,97395.03
2022-09-10T10:40:38.318Z,97394.19
2022-09-10T10:43:19.112Z,97387.81
2022-09-10T10:45:56.141Z,97386.13
2022-09-10T10:48:41.434Z,97380.00
2022-09-10T10:51:14.891Z,97387.41
2022-09-10T10:53:49.985Z,97374.28
2022-09-10T10:56:29.787Z,97374.72
2022-09-10T10:59:23.505Z,97377.56
2022-09-10T11:02:01.099Z,97375.63
2022-09-10T11:04:48.727Z,97373.91
2022-09-10T11:07:15.223Z,97364.28
2022-09-10T11:09:51.970Z,97361.56
2022-09-10T11:12:20.653Z,97362.66
2022-09-10T11:14:49.614Z,97361.53
2022-09-10T11:17:19.838Z,97362.72
2022-09-10T11:20:05.161Z,97365.50
2022-09-10T11:22:41.779Z,97369.38
2022-09-10T11:25:08.543Z,97363.66
2022-09-10T11:27:38.260Z,97357.03
2022-09-10T11:30:06.625Z,97355.59
2022-09-10T11:32:39.845Z,97347.41
2022-09-10T11:35:23.614Z,97348.25
2022-09-10T11:37:52.823Z,97348.25
2022-09-10T11:40:46.254Z,97338.03
2022-09-10T11:43:39.803Z,97339.97
2022-09-10T11:46:12.945Z,97324.16
2022-09-10T11:48:42.585Z,97339.19
2022-09-10T11:51:14.103Z,97341.66
2022-09-10T11:53:41.116Z,97330.16
2022-09-10T11:56:19.653Z,97324.78
2022-09-10T11:58:52.237Z,97323.50
2022-09-10T12:01:29.981Z,97328.22
2022-09-10T12:04:07.440Z,97328.53
2022-09-10T12:06:33.833Z,97331.50
2022-09-10T12:09:00.850Z,97331.44
2022-09-10T12:11:36.574Z,97330.22
2022-09-10T12:14:07.454Z,97328.31
2022-09-10T12:16:41.798Z,97327.72
2022-09-10T12:19:18.338Z,97321.13
2022-09-10T12:21:48.863Z,97317.19
2022-09-10T12:24:25.665Z,97326.28
2022-09-10T12:26:53.553Z,97318.28
2022-09-10T12:29:46.041Z,97310.47
2022-09-10T12:32:15.398Z,97311.41
2022-09-10T12:34:41.825Z,97310.22
2022-09-10T12:37:19.787Z,97305.13
2022-09-10T12:39:46.640Z,97294.56
2022-09-10T12:42:23.795Z,97296.63
2022-09-10T12:44:50.354Z,97290.69
2022-09-10T12:47:16.779Z,97289.53
2022-09-10T12:49:47.740Z,97287.59
2022-09-10T12:52:20.358Z,97286.66
2022-09-10T12:54:52.651Z,97287.03
2022-09-10T12:57:38.722Z,97283.50
2022-09-10T13:00:38.122Z,97282.69
2022-09-10T13:03:07.372Z,97286.56
2022-09-10T13:05:39.798Z,97281.94
2022-09-10T13:08:15.241Z,97281.50
2022-09-10T13:10:43.494Z,97293.25
2022-09-10T13:13:26.030Z,97283.19
2022-09-10T13:15:53.577Z,97289.50
2022-09-10T13:18:25.487Z,97290.75
2022-09-10T13:20:52.319Z,97292.47
2022-09-10T13:23:23.245Z,97293.25
2022-09-10T13:25:50.894Z,97289.31
2022-09-10T13:28:36.886Z,97291.63
2022-09-10T13:31:03.676Z,97282.03
2022-09-10T13:33:33.222Z,97286.00
2022-09-10T13:36:02.631Z,97275.00
2022-09-10T13:38:52.340Z,97279.56
2022-09-10T13:41:35.125Z,97284.72
2022-09-10T13:44:20.454Z,97290.44
2022-09-10T13:46:50.358Z,97284.19
2022-09-10T13:49:29.143Z,97282.28
2022-09-10T13:51:57.435Z,97278.50
2022-09-10T13:54:31.253Z,97277.06
2022-09-10T13:57:01.103Z,97288.31
2022-09-10T13:59:31.161Z,97294.97
2022-09-10T14:01:59.460Z,97294.06
2022-09-10T14:04:31.990Z,97294.84
2022-09-10T14:07:21.709Z,97297.19
2022-09-10T14:09:52.850Z,97301.38
2022-09-10T14:12:23.357Z,97299.47
2022-09-10T14:14:52.841Z,97304.19
2022-09-10T14:17:31.526Z,97296.31
2022-09-10T14:20:02.237Z,97301.81
2022-09-10T14:22:29.222Z,97299.47
2022-09-10T14:24:56.455Z,97308.78
2022-09-10T14:27:26.929Z,97317.25
2022-09-10T14:29:57.605Z,97330.88
2022-09-10T14:32:36.250Z,97335.94
2022-09-10T14:35:22.905Z,97342.59
2022-09-10T14:37:50.412Z,97335.91
2022-09-10T14:40:20.832Z,97333.78
2022-09-10T14:42:48.829Z,97344.84
2022-09-10T14:45:50.881Z,97352.88
2022-09-10T14:48:37.010Z,97362.97
2022-09-10T14:51:10.605Z,97359.47
2022-09-10T14:53:37.443Z,97358.38
2022-09-10T14:56:05.127Z,97358.38
2022-09-10T14:58:31.782Z,97374.34
2022-09-10T15:00:58.565Z,97376.06
2022-09-10T15:03:25.122Z,97364.31
2022-09-10T15:05:51.513Z,97352.56
2022-09-10T15:08:17.933Z,97340.38
2022-09-10T15:10:44.325Z,97346.06
2022-09-10T15:13:14.869Z,97336.19
2022-09-10T15:15:41.397Z,97332.84
2022-09-10T15:18:14.630Z,97325.53
2022-09-10T15:20:41.399Z,97326.59
2022-09-10T15:23:07.822Z,97326.97
2022-09-10T15:25:40.321Z,97327.44
2022-09-10T15:28:09.822Z,97329.72
2022-09-10T15:30:36.833Z,97327.44
2022-09-10T15:33:06.739Z,97331.19
2022-09-10T15:35:33.203Z,97327.41
2022-09-10T15:38:01.625Z,97328.44
2022-09-10T15:40:28.072Z,97334.94
2022-09-10T15:42:54.668Z,97321.09
2022-09-10T15:45:21.142Z,97328.25
2022-09-10T15:47:47.599Z,97334.75
2022-09-10T15:50:16.194Z,97336.63
2022-09-10T15:52:44.816Z,97344.19
2022-09-10T15:55:12.394Z,97347.97
2022-09-10T15:57:40.319Z,97347.84
2022-09-10T16:00:07.423Z,97358.38
2022-09-10T16:02:34.359Z,97355.41
2022-09-10T16:05:03.888Z,97360.94
2022-09-10T16:07:30.446Z,97363.84
2022-09-10T16:09:58.708Z,97369.88
2022-09-10T16:12:28.152Z,97378.50
2022-09-10T16:14:55.734Z,97387.53
2022-09-10T16:17:22.150Z,97388.00
2022-09-10T16:19:49.588Z,97390.75
2022-09-10T16:22:20.400Z,97387.44
2022-09-10T16:24:47.193Z,97389.91
2022-09-10T16:27:13.634Z,97395.34
2022-09-10T16:29:43.507Z,97387.81
2022-09-10T16:32:10.811Z,97396.66
2022-09-10T16:34:38.561Z,97394.50
2022-09-10T16:37:05.259Z,97392.19
2022-09-10T16:39:31.770Z,97388.19
2022-09-10T16:41:58.198Z,97395.81
2022-09-10T16:44:24.737Z,97400.81
2022-09-10T16:46:51.253Z,97406.75
2022-09-10T16:49:19.646Z,97412.84
2022-09-10T16:51:47.269Z,97418.44
2022-09-10T16:54:14.496Z,97421.63
2022-09-10T16:56:42.521Z,97413.81
2022-09-10T16:59:17.550Z,97425.91
2022-09-10T17:01:45.017Z,97414.75
2022-09-10T17:04:19.219Z,97418.94
2022-09-10T17:06:47.219Z,97422.97
2022-09-10T17:09:14.241Z,97425.00
2022-09-10T17:11:40.869Z,97419.31
2022-09-10T17:14:08.260Z,97427.06
2022-09-10T17:16:39.149Z,97418.16
2022-09-10T17:19:11.488Z,97416.50
2022-09-10T17:21:38.705Z,97417.44
2022-09-10T17:24:07.050Z,97414.81
2022-09-10T17:26:33.989Z,97411.53
2022-09-10T17:29:01.772Z,97414.13
2022-09-10T17:31:29.532Z,97424.56
2022-09-10T17:33:56.946Z,97436.50
2022-09-10T17:36:25.233Z,97437.09
2022-09-10T17:38:53.597Z,97443.75
2022-09-10T17:41:20.938Z,97453.03
2022-09-10T17:43:47.523Z,97455.31
2022-09-10T17:46:15.484Z,97458.69
2022-09-10T17:48:45.262Z,97453.94
2022-09-10T17:51:13.411Z,97461.16
2022-09-10T17:53:40.100Z,97465.72
2022-09-10T17:56:07.942Z,97458.03
2022-09-10T17:58:34.593Z,97458.13
2022-09-10T18:01:02.460Z,97460.59
2022-09-10T18:03:29.953Z,97470.97
2022-09-10T18:05:57.099Z,97474.94
2022-09-10T18:08:23.781Z,97466.03
2022-09-10T18:10:50.838Z,97474.22
2022-09-10T18:13:19.471Z,97474.94
2022-09-10T18:15:49.349Z,97478.31
2022-09-10T18:18:15.865Z,97467.78
2022-09-10T18:20:42.959Z,97467.69
2022-09-10T18:23:09.747Z,97467.03
2022-09-10T18:25:36.178Z,97472.94
2022-09-10T18:28:03.073Z,97470.81
2022-09-10T18:30:29.658Z,97479.09
2022-09-10T18:32:56.131Z,97470.88
2022-09-10T18:35:23.007Z,97475.75
2022-09-10T18:37:52.625Z,97476.69
2022-09-10T18:40:19.537Z,97476.66
2022-09-10T18:42:47.712Z,97478.19
2022-09-10T18:45:14.354Z,97473.16
2022-09-10T18:47:45.094Z,97480.16
2022-09-10T18:50:13.228Z,97475.81
2022-09-10T18:52:39.747Z,97485.09
2022-09-10T18:55:06.445Z,97481.38
2022-09-10T18:57:32.930Z,97488.94
2022-09-10T18:59:59.740Z,97486.56
2022-09-10T19:02:26.254Z,97492.22
2022-09-10T19:05:11.676Z,97488.78
2022-09-10T19:07:38.695Z,97494.13
2022-09-10T19:10:06.989Z,97489.38
2022-09-10T19:12:33.633Z,97494.91
2022-09-10T19:15:00.438Z,97497.84
2022-09-10T19:17:26.927Z,97493.66
2022-09-10T19:19:53.340Z,97497.28
2022-09-10T19:22:19.953Z,97492.88
2022-09-10T19:24:55.723Z,97507.31
2022-09-10T19:27:22.701Z,97504.78
2022-09-10T19:29:49.875Z,97512.09
2022-09-10T19:32:17.123Z,97509.56
2022-09-10T19:34:43.765Z,97520.63
2022-09-10T19:37:10.463Z,97519.72
2022-09-10T19:39:37.092Z,97519.13
2022-09-10T19:42:04.061Z,97520.63
2022-09-10T19:44:30.497Z,97514.75
2022-09-10T19:46:56.965Z,97513.13
2022-09-10T19:49:23.475Z,97517.44
2022-09-10T19:51:49.874Z,97516.56
2022-09-10T19:54:16.437Z,97530.00
2022-09-10T19:56:43.730Z,97518.72
2022-09-10T19:59:10.395Z,97517.03
2022-09-10T20:01:38.803Z,97519.72
2022-09-10T20:04:06.732Z,97519.13
2022-09-10T20:06:33.986Z,97515.41
2022-09-10T20:09:00.942Z,97511.28
2022-09-10T20:11:29.857Z,97512.38
2022-09-10T20:13:57.376Z,97510.31
2022-09-10T20:16:25.076Z,97520.41
2022-09-10T20:18:52.010Z,97507.59
2022-09-10T20:21:29.915Z,97517.78
2022-09-10T20:23:56.619Z,97527.88
2022-09-10T20:26:25.187Z,97530.19
2022-09-10T20:28:53.567Z,97520.84
2022-09-10T20:31:20.635Z,97522.88
2022-09-10T20:33:49.190Z,97529.03
2022-09-10T20:36:16.559Z,97525.72
2022-09-10T20:38:43.473Z,97519.41
2022-09-10T20:41:11.804Z,97517.34
2022-09-10T20:43:38.414Z,97511.69
2022-09-10T20:46:05.112Z,97510.25
2022-09-10T20:48:31.690Z,97509.63
2022-09-10T20:50:58.854Z,97498.78
2022-09-10T20:53:26.515Z,97487.81
2022-09-10T20:56:00.785Z,97499.50
2022-09-10T20:58:27.242Z,97502.69
2022-09-10T21:00:55.942Z,97491.31
2022-09-10T21:03:23.287Z,97497.31
2022-09-10T21:05:50.054Z,97494.22
2022-09-10T21:08:16.494Z,97497.13
2022-09-10T21:10:42.979Z,97506.75
2022-09-10T21:13:09.689Z,97492.91
2022-09-10T21:15:36.140Z,97502.56
2022-09-10T21:18:02.557Z,97503.47
2022-09-10T21:20:29.131Z,97507.22
2022-09-10T21:22:56.281Z,97496.97
2022-09-10T21:25:22.820Z,97494.50
2022-09-10T21:27:49.341Z,97499.25
2022-09-10T21:30:15.812Z,97500.84
2022-09-10T21:32:42.246Z,97500.13
2022-09-10T21:35:08.978Z,97511.25
2022-09-10T21:37:35.673Z,97512.91
2022-09-10T21:40:02.528Z,97516.41
2022-09-10T21:42:28.974Z,97514.81
2022-09-10T21:44:55.433Z,97514.25
2022-09-10T21:47:21.891Z,97511.53
2022-09-10T21:49:48.436Z,97516.50
2022-09-10T21:52:14.884Z,97522.25
2022-09-10T21:54:41.370Z,97535.50
2022-09-10T21:57:10.909Z,97520.91
2022-09-10T21:59:37.397Z,97518.75
2022-09-10T22:02:04.312Z,97523.91
2022-09-10T22:04:30.812Z,97533.59
2022-09-10T22:06:57.639Z,97530.94
2022-09-10T22:09:24.438Z,97530.16
2022-09-10T22:11:54.034Z,97542.47
2022-09-10T22:14:22.158Z,97533.09
2022-09-10T22:16:48.657Z,97541.41
2022-09-10T22:19:18.061Z,97534.44
2022-09-10T22:21:44.893Z,97531.63
2022-09-10T22:24:12.034Z,97527.97
2022-09-10T22:26:43.336Z,97529.03
2022-09-10T22:29:09.929Z,97529.75
2022-09-10T22:31:36.517Z,97533.78
2022-09-10T22:34:07.723Z,97531.19
2022-09-10T22:36:35.605Z,97531.69
2022-09-10T22:39:03.786Z,97538.66
2022-09-10T22:41:31.634Z,97533.28
2022-09-10T22:43:58.297Z,97536.28
2022-09-10T22:46:27.893Z,97540.69
2022-09-10T22:48:54.641Z,97535.22
2022-09-10T22:51:25.372Z,97541.38
2022-09-10T22:53:53.242Z,97538.44
2022-09-10T22:56:22.165Z,97536.56
2022-09-10T22:58:52.184Z,97536.97
2022-09-10T23:01:20.390Z,97533.06
2022-09-10T23:03:48.099Z,97530.22
2022-09-10T23:06:16.121Z,97533.97
2022-09-10T23:08:44.007Z,97528.75
2022-09-10T23:11:11.329Z,97525.84
2022-09-10T23:13:37.995Z,97524.78
2022-09-10T23:16:12.011Z,97515.88
2022-09-10T23:18:39.550Z,97501.44
2022-09-10T23:21:06.476Z,97507.84
2022-09-10T23:23:32.929Z,97503.22
2022-09-10T23:26:03.497Z,97507.56
2022-09-10T23:28:29.969Z,97507.22
2022-09-10T23:31:06.324Z,97501.97
2022-09-10T23:33:33.044Z,97512.34
2022-09-10T23:35:59.485Z,97496.41
2022-09-10T23:38:26.007Z,97503.84
2022-09-10T23:40:52.742Z,97505.94
2022-09-10T23:43:19.157Z,97513.66
2022-09-10T23:45:45.582Z,97512.66
2022-09-10T23:48:12.021Z,97518.44
2022-09-10T23:50:38.440Z,97514.75
2022-09-10T23:53:05.473Z,97504.13
2022-09-10T23:55:36.171Z,97511.03
2022-09-10T23:58:03.310Z,97513.22
